• Join FlightAware (Why Join?)
  • Login
  • US Flag 
11:04AM EDT


 

Airport Tracker/Info


-or-


 

Live Flight TrackerFlight Track Log ✈ PDT4226 ✈ 04-Feb-2014 ✈ KPHL - KBGM

Flight Track Log - Related Links

Times and Time Zones

All times are in EST time to prevent confusion due to time zone crossing. See the PDT4226 flight status page for this flight to view local times or setup timezone preferences in your user account.

Time Position Orientation Groundspeed Altitude Reporting Facility
EST Latitude Longitude Course Direction KTS MPH feet Rate Location/Type
11:49AM 39.9000 -75.2333 303° West 120 138 500  Level Philadelphia TRACON
11:50AM 39.9167 -75.2833 294° West 138 159 2,500 1,500 Climbing Philadelphia TRACON
11:51AM 39.9167 -75.3333 270° West 137 158 3,900 1,380 Climbing Philadelphia TRACON
11:52AM 40.0097 -75.3597 323° Northwest  Level FlightAware Approximate
11:52AM 39.9333 -75.3833 294° West 154 177 5,000  Level Philadelphia TRACON
11:53AM 40.0566 -75.4066 323° Northwest  Level FlightAware Approximate
11:53AM 39.9500 -75.4333 294° West 178 205 6,100  Level Philadelphia TRACON
11:54AM 40.1059 -75.4451 303° West  Level FlightAware Approximate
11:54AM 40.0167 -75.4500 349° North 184 212 7,600  Level Philadelphia TRACON
11:55AM 40.0500 -75.4667 339° North 181 208 8,600 1,200 Climbing Philadelphia TRACON
11:56AM 40.0778 -75.4803 339° North 188 216 9,300 1,140 Climbing New York Center
11:57AM 40.1167 -75.4992 340° North 182 209 10,400 900 Climbing New York Center
11:59AM 40.2167 -75.5522 338° Northwest 197 227 12,000 720 Climbing New York Center
12:00PM 40.2736 -75.5917 332° Northwest 209 241 12,700 780 Climbing New York Center
12:01PM 40.3264 -75.6197 338° Northwest 209 241 13,600 600 Climbing New York Center
12:02PM 40.3731 -75.6558 329° Northwest 204 235 14,000 180 Climbing New York Center
12:03PM 40.4217 -75.6864 334° Northwest 204 235 14,000  Level New York Center
12:04PM 40.4808 -75.7153 340° North 218 251 14,000  Level New York Center
12:05PM 40.5372 -75.7631 327° Northwest 223 257 14,000  Level New York Center
12:06PM 40.5853 -75.8128 322° Northwest 223 257 14,000  Level New York Center
12:07PM 40.6353 -75.8603 324° Northwest 218 251 14,000  Level New York Center
12:08PM 40.6792 -75.9047 322° Northwest 218 251 14,000 -60 Level New York Center
12:09PM 40.7361 -75.9364 337° Northwest 218 251 13,900 -60 Descending New York Center
12:10PM 40.7969 -75.9739 335° Northwest 218 251 13,900  Level New York Center
12:11PM 40.8497 -76.0053 336° Northwest 224 258 13,900  Level New York Center
12:12PM 40.9089 -76.0372 338° Northwest 224 258 13,900  Level New York Center
12:13PM 40.9719 -76.0722 337° Northwest 230 265 13,900  Level New York Center
12:14PM 41.0250 -76.0958 341° North 225 259 13,900  Level New York Center
12:15PM 41.0819 -76.1278 337° Northwest 225 259 14,000  Climbing New York Center
12:16PM 41.1450 -76.1603 339° North 225 259 14,000  Level New York Center
12:17PM 41.2039 -76.1925 338° Northwest 225 259 14,000  Level New York Center
12:18PM 41.2678 -76.2086 349° North 225 259 14,000  Level New York Center
12:19PM 41.3308 -76.1972 North 237 273 14,000  Level New York Center
12:20PM 41.3994 -76.1972 360° North 244 281 14,000  Level New York Center
12:21PM 41.4767 -76.1953 North 244 281 14,000 -60 Level New York Center
12:22PM 41.5481 -76.1844 North 249 287 13,900 -540 Descending New York Center
12:23PM 41.6211 -76.1819 North 261 300 13,000 -1,200 Descending New York Center
12:24PM 41.6900 -76.1764 North 267 307 11,600 -1,560 Descending New York Center
12:25PM 41.7753 -76.1778 359° North 277 319 9,900 -1,560 Descending New York Center
12:26PM 41.8525 -76.1756 North 277 319 8,500 -1,500 Descending New York Center
12:27PM 41.9250 -76.1369 22° Northeast 265 305 7,000 -1,320 Descending New York Center
12:28PM 41.9850 -76.1000 25° Northeast 265 305 5,900 -1,020 Descending New York Center
12:29PM 42.0467 -76.0686 21° North 252 290 5,000 -900 Descending New York Center
12:30PM 42.0933 -76.0025 46° Northeast 239 275 4,100 -900 Descending New York Center
12:31PM 42.1356 -75.9444 46° Northeast 227 261 3,300 -780 Descending New York Center
12:32PM 42.1708 -75.9472 357° North 146 168 2,600 -600 Descending New York Center
12:33PM 42.2108 -75.9364 11° North 132 152 2,100 -540 Descending New York Center